Time;durP1;ratioP1;P1;durP2;ratioP2;P2;SDS_P1;SDS_P2;PMS_P1;PMS_P2;Temp;Humidity;BMP_temperature;BMP_pressure;BME280_temperature;BME280_humidity;BME280_pressure;Samples;Min_cycle;Max_cycle;Signal;HPM_P1;HPM_P2
2021/05/17 00:01:54;;;;;;;0.10;0.10;;;10.30;99.90;;;;;;4957115;28;20099;-74
2021/05/17 00:04:30;;;;;;;0.38;0.10;;;10.20;99.90;;;;;;4953811;28;20106;-74
2021/05/17 00:06:57;;;;;;;1.65;0.10;;;10.10;99.90;;;;;;4957424;28;20436;-74
2021/05/17 00:09:23;;;;;;;0.60;0.17;;;10.10;99.90;;;;;;4951045;28;20087;-74
2021/05/17 00:11:49;;;;;;;0.10;0.05;;;10.10;99.90;;;;;;4951295;28;20481;-74
2021/05/17 00:14:15;;;;;;;0.15;0.10;;;10.00;99.90;;;;;;4950316;28;20540;-74
2021/05/17 00:16:41;;;;;;;0.20;0.10;;;10.10;99.90;;;;;;4953914;28;20139;-74
2021/05/17 00:19:07;;;;;;;0.20;0.08;;;10.00;99.90;;;;;;4951787;28;20087;-73
2021/05/17 00:21:33;;;;;;;0.08;0.08;;;10.00;99.90;;;;;;4950392;28;20449;-74
2021/05/17 00:23:58;;;;;;;2.13;0.05;;;10.00;99.90;;;;;;4949942;28;20183;-73
2021/05/17 00:26:24;;;;;;;0.65;0.10;;;10.10;99.90;;;;;;4950543;28;20103;-75
2021/05/17 00:28:50;;;;;;;0.45;0.30;;;10.00;99.90;;;;;;4958734;28;20468;-75
2021/05/17 00:31:16;;;;;;;1.63;0.10;;;10.00;99.90;;;;;;4950662;28;20087;-75
2021/05/17 00:33:43;;;;;;;0.00;0.00;;;10.00;99.90;;;;;;4951306;29;20436;-75
2021/05/17 00:36:09;;;;;;;0.70;0.28;;;10.00;99.90;;;;;;4950355;28;20138;-73
2021/05/17 00:38:34;;;;;;;1.42;0.30;;;10.00;99.90;;;;;;4957351;28;20083;-73
2021/05/17 00:41:00;;;;;;;0.32;0.10;;;9.90;99.90;;;;;;4951171;28;20099;-74
2021/05/17 00:43:32;;;;;;;0.75;0.20;;;10.00;99.90;;;;;;4936111;28;20106;-74
2021/05/17 00:45:58;;;;;;;0.17;0.17;;;10.00;99.90;;;;;;4949723;28;20091;-74
2021/05/17 00:48:23;;;;;;;0.08;0.08;;;9.90;99.90;;;;;;4951120;28;20071;-74
2021/05/17 00:50:50;;;;;;;0.13;0.10;;;9.90;99.90;;;;;;4944018;28;20096;-74
2021/05/17 00:53:15;;;;;;;0.25;0.00;;;9.90;99.90;;;;;;4949494;28;20100;-74
2021/05/17 00:55:41;;;;;;;0.73;0.20;;;10.00;99.90;;;;;;4949730;28;20167;-74
2021/05/17 00:58:07;;;;;;;1.85;0.25;;;9.90;99.90;;;;;;4950880;28;20091;-74
2021/05/17 01:00:33;;;;;;;2.55;0.30;;;10.00;99.90;;;;;;4954867;28;20094;-73
2021/05/17 01:02:59;;;;;;;0.22;0.10;;;10.00;99.90;;;;;;4955822;28;20079;-72
2021/05/17 01:05:24;;;;;;;0.10;0.10;;;9.90;99.90;;;;;;4950290;28;20095;-74
2021/05/17 01:07:50;;;;;;;0.80;0.30;;;9.90;99.90;;;;;;4950337;28;20088;-74
2021/05/17 01:10:21;;;;;;;0.28;0.10;;;9.90;99.90;;;;;;4945879;28;20084;-75
2021/05/17 01:12:50;;;;;;;0.43;0.10;;;10.00;99.90;;;;;;4949948;28;20072;-74
2021/05/17 01:15:17;;;;;;;0.22;0.08;;;9.90;99.90;;;;;;4955511;28;20076;-73
2021/05/17 01:17:44;;;;;;;0.17;0.10;;;10.00;99.90;;;;;;4961652;28;20107;-74
2021/05/17 01:20:18;;;;;;;1.75;0.10;;;10.10;99.90;;;;;;4960090;28;20086;-75
2021/05/17 01:22:53;;;;;;;0.43;0.20;;;10.00;99.90;;;;;;4951916;28;20636;-74
2021/05/17 01:25:22;;;;;;;0.43;0.17;;;9.90;99.90;;;;;;4966660;28;20551;-73
2021/05/17 01:27:48;;;;;;;0.17;0.10;;;9.90;99.90;;;;;;4968172;28;20079;-73
2021/05/17 01:30:15;;;;;;;0.38;0.10;;;10.00;99.90;;;;;;4965048;28;20094;-73
2021/05/17 01:32:43;;;;;;;0.10;0.10;;;9.80;99.90;;;;;;4963963;28;20110;-73
2021/05/17 01:35:10;;;;;;;0.30;0.17;;;9.80;99.90;;;;;;4970578;28;20436;-73
2021/05/17 01:37:38;;;;;;;0.00;0.00;;;9.90;99.90;;;;;;4954610;28;20079;-73
2021/05/17 01:40:07;;;;;;;1.30;0.10;;;9.80;99.90;;;;;;4962234;28;20087;-73
2021/05/17 01:42:37;;;;;;;0.08;0.00;;;9.70;99.90;;;;;;4949243;28;20096;-74
2021/05/17 01:45:04;;;;;;;0.57;0.10;;;9.90;99.90;;;;;;4953557;28;20083;-74
2021/05/17 01:47:30;;;;;;;0.43;0.10;;;9.90;99.90;;;;;;4935028;28;20131;-73
2021/05/17 01:49:58;;;;;;;0.15;0.10;;;9.90;99.90;;;;;;4952605;28;20095;-74
2021/05/17 01:52:26;;;;;;;1.85;0.10;;;9.80;99.90;;;;;;4954737;28;20087;-73
2021/05/17 01:54:52;;;;;;;0.85;0.28;;;9.70;99.90;;;;;;4953424;28;20108;-74
2021/05/17 01:57:19;;;;;;;1.40;0.20;;;9.80;99.90;;;;;;4935353;28;20084;-74
2021/05/17 01:59:45;;;;;;;0.10;0.00;;;9.80;99.90;;;;;;4951305;28;20141;-75
2021/05/17 02:02:11;;;;;;;0.25;0.10;;;9.90;99.90;;;;;;4956679;28;20626;-74
2021/05/17 02:04:37;;;;;;;0.57;0.10;;;9.90;99.90;;;;;;4953443;28;20080;-74
2021/05/17 02:07:03;;;;;;;0.20;0.10;;;9.90;99.90;;;;;;4935563;28;20475;-74
2021/05/17 02:09:32;;;;;;;0.17;0.15;;;10.00;99.90;;;;;;4952483;28;20076;-74
2021/05/17 02:11:58;;;;;;;0.45;0.20;;;9.90;99.90;;;;;;4953133;28;20092;-75
2021/05/17 02:14:25;;;;;;;0.95;0.10;;;9.90;99.90;;;;;;4951662;28;20076;-74
2021/05/17 02:16:51;;;;;;;0.82;0.30;;;9.80;99.90;;;;;;4962430;28;20079;-74
2021/05/17 02:19:23;;;;;;;0.20;0.10;;;9.80;99.90;;;;;;4953646;28;20139;-72
2021/05/17 02:21:50;;;;;;;1.95;0.75;;;9.80;99.90;;;;;;4953863;28;20088;-75
2021/05/17 02:24:16;;;;;;;0.65;0.30;;;9.80;99.90;;;;;;4952098;28;20149;-75
2021/05/17 02:26:42;;;;;;;0.65;0.20;;;9.70;99.90;;;;;;4951998;29;20657;-74
2021/05/17 02:29:09;;;;;;;0.30;0.10;;;9.70;99.90;;;;;;4952578;29;20863;-74
2021/05/17 02:31:35;;;;;;;0.85;0.20;;;9.70;99.90;;;;;;4952678;28;20452;-73
2021/05/17 02:34:01;;;;;;;0.90;0.25;;;9.80;99.90;;;;;;4950861;28;20072;-72
2021/05/17 02:36:27;;;;;;;0.30;0.30;;;9.70;99.90;;;;;;4952111;29;20080;-74
2021/05/17 02:38:53;;;;;;;0.98;0.20;;;9.60;99.90;;;;;;4952088;29;20083;-74
2021/05/17 02:41:23;;;;;;;1.05;0.28;;;9.70;99.90;;;;;;4952085;28;20174;-75
2021/05/17 02:43:49;;;;;;;0.50;0.20;;;9.70;99.90;;;;;;4958869;28;20075;-73
2021/05/17 02:46:16;;;;;;;0.50;0.32;;;9.70;99.90;;;;;;4951078;28;20103;-75
2021/05/17 02:48:43;;;;;;;0.75;0.30;;;9.80;99.90;;;;;;4951523;28;20499;-75
2021/05/17 02:51:10;;;;;;;0.13;0.10;;;9.80;99.90;;;;;;4957489;28;20088;-73
2021/05/17 02:53:36;;;;;;;1.17;0.30;;;9.70;99.90;;;;;;4951935;28;20079;-74
2021/05/17 02:56:16;;;;;;;0.57;0.20;;;9.80;99.90;;;;;;4952113;28;20115;-75
2021/05/17 02:58:44;;;;;;;0.30;0.10;;;9.80;99.90;;;;;;4952688;28;20075;-75
2021/05/17 03:01:27;;;;;;;1.63;0.20;;;9.80;99.90;;;;;;4951016;28;20178;-73
2021/05/17 03:03:57;;;;;;;0.50;0.20;;;9.90;99.90;;;;;;4951172;28;20104;-73
2021/05/17 03:06:34;;;;;;;1.92;0.40;;;9.90;99.90;;;;;;4952210;29;20159;-73
2021/05/17 03:09:03;;;;;;;1.65;0.20;;;9.90;99.90;;;;;;4952324;28;20106;-70
2021/05/17 03:11:30;;;;;;;1.55;0.22;;;10.00;99.90;;;;;;4934919;28;20122;-73
2021/05/17 03:13:58;;;;;;;0.90;0.30;;;9.90;99.90;;;;;;4951818;28;20440;-73
2021/05/17 03:16:25;;;;;;;1.25;0.30;;;9.90;99.90;;;;;;4966164;28;20083;-73
2021/05/17 03:18:53;;;;;;;1.10;0.30;;;9.90;99.90;;;;;;4960371;28;20079;-73
2021/05/17 03:21:23;;;;;;;1.23;0.40;;;9.90;99.90;;;;;;4967219;28;20106;-72
2021/05/17 03:23:51;;;;;;;0.73;0.30;;;9.90;99.90;;;;;;4953615;28;20084;-72
2021/05/17 03:26:18;;;;;;;1.77;0.22;;;9.80;99.90;;;;;;4959079;28;20099;-72
2021/05/17 03:28:44;;;;;;;1.55;0.30;;;9.90;99.90;;;;;;4958962;28;20116;-72
2021/05/17 03:31:10;;;;;;;0.75;0.30;;;9.90;99.90;;;;;;4952167;28;20535;-72
2021/05/17 03:33:35;;;;;;;1.70;0.20;;;9.80;99.90;;;;;;4951367;28;20440;-72
2021/05/17 03:36:01;;;;;;;0.63;0.30;;;9.80;99.90;;;;;;4952370;28;20092;-72
2021/05/17 03:38:27;;;;;;;0.63;0.50;;;9.90;99.90;;;;;;4951061;28;20147;-72
2021/05/17 03:40:52;;;;;;;1.23;0.28;;;9.90;99.90;;;;;;4956622;28;20238;-72
2021/05/17 03:43:18;;;;;;;1.02;0.30;;;9.80;99.90;;;;;;4951495;28;20083;-72
2021/05/17 03:45:44;;;;;;;0.55;0.22;;;9.80;99.90;;;;;;4937352;28;20099;-72
2021/05/17 03:48:09;;;;;;;0.20;0.20;;;9.80;99.90;;;;;;4953087;28;20086;-72
2021/05/17 03:50:35;;;;;;;2.08;0.40;;;9.90;99.90;;;;;;4934241;29;20088;-72
2021/05/17 03:53:01;;;;;;;1.48;0.22;;;9.90;99.90;;;;;;4951708;28;20154;-72
2021/05/17 03:55:26;;;;;;;0.22;0.10;;;9.80;99.90;;;;;;4950742;28;20540;-74
2021/05/17 03:57:55;;;;;;;0.73;0.20;;;9.80;99.90;;;;;;4952011;28;20119;-72
2021/05/17 04:00:21;;;;;;;0.73;0.30;;;9.90;99.90;;;;;;4952380;28;20563;-72
2021/05/17 04:02:47;;;;;;;1.63;0.32;;;9.90;99.90;;;;;;4953738;28;20085;-72
2021/05/17 04:13:27;;;;;;;0.88;0.30;;;9.90;99.90;;;;;;4957366;28;20091;-72
2021/05/17 04:15:55;;;;;;;0.73;0.45;;;9.90;99.90;;;;;;4951057;28;20085;-72
2021/05/17 04:18:22;;;;;;;0.50;0.20;;;9.80;99.90;;;;;;4951492;28;20543;-71
2021/05/17 04:20:49;;;;;;;0.57;0.20;;;9.70;99.90;;;;;;4952624;28;20556;-73
2021/05/17 04:23:19;;;;;;;0.40;0.13;;;9.70;99.90;;;;;;4948795;28;20117;-72
2021/05/17 04:25:45;;;;;;;0.10;0.10;;;9.70;99.90;;;;;;4962120;28;20102;-73
2021/05/17 04:28:10;;;;;;;1.35;0.47;;;9.80;99.90;;;;;;4960005;28;20079;-74
2021/05/17 04:30:36;;;;;;;0.60;0.30;;;9.70;99.90;;;;;;4954927;28;20161;-74
2021/05/17 04:33:01;;;;;;;1.90;0.20;;;9.70;99.90;;;;;;4950851;28;20075;-74
2021/05/17 04:35:27;;;;;;;0.50;0.15;;;9.80;99.90;;;;;;4949923;28;20133;-73
2021/05/17 04:37:53;;;;;;;1.65;0.20;;;9.80;99.90;;;;;;4950340;28;20992;-74
2021/05/17 04:40:18;;;;;;;0.35;0.10;;;9.80;99.90;;;;;;4950018;28;20080;-74
2021/05/17 04:42:44;;;;;;;1.38;0.10;;;9.80;99.90;;;;;;4952148;28;20584;-74
2021/05/17 04:45:11;;;;;;;0.57;0.30;;;9.90;99.90;;;;;;4954760;28;20106;-74
2021/05/17 04:47:36;;;;;;;3.75;0.22;;;9.90;99.90;;;;;;4956163;28;20090;-74
2021/05/17 04:50:04;;;;;;;0.60;0.35;;;9.90;99.90;;;;;;4955488;28;20088;-74
2021/05/17 04:52:30;;;;;;;1.65;0.20;;;9.90;99.90;;;;;;4951026;28;20467;-74
2021/05/17 04:54:55;;;;;;;0.70;0.20;;;9.80;99.90;;;;;;4950707;29;20084;-74
2021/05/17 04:57:21;;;;;;;0.13;0.10;;;9.80;99.90;;;;;;4949630;28;20080;-74
2021/05/17 04:59:46;;;;;;;2.70;0.45;;;9.80;99.90;;;;;;4950514;28;20563;-74
2021/05/17 05:02:12;;;;;;;0.73;0.10;;;9.80;99.90;;;;;;4952152;28;20103;-74
2021/05/17 05:04:37;;;;;;;1.05;0.28;;;9.90;99.90;;;;;;4957896;28;20087;-74
2021/05/17 05:07:03;;;;;;;0.95;0.38;;;9.90;99.90;;;;;;4951364;28;20099;-74
2021/05/17 05:09:29;;;;;;;2.03;0.40;;;9.90;99.90;;;;;;4949922;28;20529;-74
2021/05/17 05:11:54;;;;;;;1.50;0.38;;;9.90;99.90;;;;;;4951713;28;20095;-74
2021/05/17 05:14:20;;;;;;;1.10;0.35;;;9.80;99.90;;;;;;4949895;28;20079;-74
2021/05/17 05:16:45;;;;;;;0.60;0.20;;;9.90;99.90;;;;;;4953332;28;20086;-74
2021/05/17 05:19:11;;;;;;;10.52;0.73;;;9.90;99.90;;;;;;4954556;28;20158;-74
2021/05/17 05:21:37;;;;;;;1.45;0.32;;;9.80;99.90;;;;;;4954009;28;20553;-74
2021/05/17 05:24:03;;;;;;;0.93;0.20;;;9.90;99.90;;;;;;4954016;29;20080;-74
2021/05/17 05:26:47;;;;;;;2.17;0.40;;;9.90;99.90;;;;;;4953233;28;20553;-74
2021/05/17 05:32:03;;;;;;;0.80;0.40;;;9.90;99.90;;;;;;4973216;28;20102;-74
2021/05/17 05:34:26;;;;;;;4.10;0.68;;;10.00;99.90;;;;;;4971900;28;20166;-74
2021/05/17 05:36:52;;;;;;;1.50;0.65;;;9.90;99.90;;;;;;4965102;28;20084;-74
2021/05/17 05:39:18;;;;;;;1.88;0.85;;;10.00;99.90;;;;;;4953014;28;20167;-74
2021/05/17 05:41:44;;;;;;;1.20;0.30;;;10.00;99.90;;;;;;4954993;28;20437;-74
2021/05/17 05:44:09;;;;;;;1.05;0.40;;;10.00;99.90;;;;;;4958990;28;20536;-74
2021/05/17 05:46:35;;;;;;;2.08;0.85;;;10.10;99.90;;;;;;4972330;28;20095;-74
2021/05/17 05:49:00;;;;;;;1.38;0.60;;;10.00;99.90;;;;;;4955186;28;20090;-74
2021/05/17 05:51:31;;;;;;;3.00;0.82;;;10.10;99.90;;;;;;4951978;28;20548;-74
2021/05/17 05:53:58;;;;;;;1.55;0.57;;;10.00;99.90;;;;;;4952731;28;20604;-77
2021/05/17 05:56:24;;;;;;;2.40;0.50;;;10.10;99.90;;;;;;4957826;28;20142;-76
2021/05/17 05:58:50;;;;;;;3.22;0.65;;;10.10;99.90;;;;;;4956577;28;20077;-77
2021/05/17 06:01:17;;;;;;;2.53;0.70;;;10.10;99.90;;;;;;4963632;28;20099;-76
2021/05/17 06:03:43;;;;;;;3.97;0.85;;;10.10;99.90;;;;;;4955132;28;20075;-76
2021/05/17 06:06:09;;;;;;;3.60;0.80;;;10.10;99.90;;;;;;4940594;28;20150;-76
2021/05/17 06:08:36;;;;;;;2.33;0.60;;;10.20;99.90;;;;;;4946811;28;20480;-75
2021/05/17 06:11:03;;;;;;;4.78;0.98;;;10.30;99.90;;;;;;4956153;28;20088;-78
2021/05/17 06:13:29;;;;;;;2.10;0.90;;;10.40;99.90;;;;;;4954614;28;20072;-77
2021/05/17 06:15:55;;;;;;;3.05;0.75;;;10.40;99.90;;;;;;4972798;28;20163;-75
2021/05/17 06:18:21;;;;;;;2.85;0.70;;;10.50;99.90;;;;;;4967388;28;20084;-75
2021/05/17 06:20:47;;;;;;;3.50;0.73;;;10.60;99.90;;;;;;4951362;28;20158;-76
2021/05/17 06:23:15;;;;;;;2.92;0.52;;;10.60;99.90;;;;;;4971499;28;20079;-75
2021/05/17 06:25:41;;;;;;;4.10;0.88;;;10.60;99.90;;;;;;4951751;28;20654;-75
2021/05/17 06:28:08;;;;;;;3.88;0.73;;;10.70;99.90;;;;;;4958176;28;20642;-75
2021/05/17 06:30:43;;;;;;;2.45;0.70;;;10.60;99.90;;;;;;4962692;28;20071;-74
2021/05/17 06:33:09;;;;;;;2.88;0.90;;;10.60;99.90;;;;;;4954362;28;20137;-75
2021/05/17 06:35:43;;;;;;;3.47;1.08;;;10.60;99.90;;;;;;4953878;28;20509;-75
2021/05/17 06:38:09;;;;;;;1.88;0.55;;;10.50;99.90;;;;;;4969562;28;20080;-77
2021/05/17 06:40:35;;;;;;;3.70;0.75;;;10.60;99.90;;;;;;4956091;28;20182;-75
2021/05/17 06:43:00;;;;;;;4.55;1.02;;;10.60;99.90;;;;;;4962968;28;20547;-76
2021/05/17 06:45:26;;;;;;;3.22;1.52;;;10.60;99.90;;;;;;4965058;28;20560;-75
2021/05/17 06:47:52;;;;;;;4.32;1.20;;;10.60;99.90;;;;;;4954323;28;20467;-77
2021/05/17 06:50:18;;;;;;;1.48;0.57;;;10.60;99.90;;;;;;4969494;28;20086;-78
2021/05/17 06:52:43;;;;;;;6.15;0.68;;;10.60;99.90;;;;;;4958095;28;20600;-76
2021/05/17 06:55:15;;;;;;;2.03;0.60;;;10.60;99.90;;;;;;4962731;28;20120;-75
2021/05/17 06:57:52;;;;;;;4.10;0.50;;;10.70;99.90;;;;;;4963727;28;20485;-77
2021/05/17 07:02:55;;;;;;;3.30;1.15;;;10.80;99.90;;;;;;4964840;28;20078;-75
2021/05/17 07:05:22;;;;;;;3.38;0.77;;;10.90;99.90;;;;;;4963584;28;20071;-74
2021/05/17 07:11:31;;;;;;;4.50;1.15;;;11.00;99.90;;;;;;4966281;28;20071;-75
2021/05/17 07:13:22;;;;;;;1.55;0.52;;;11.00;99.90;;;;;;4965011;28;20133;-79
2021/05/17 07:15:48;;;;;;;4.45;0.70;;;11.00;99.90;;;;;;4963538;28;20532;-76
2021/05/17 07:18:14;;;;;;;7.43;0.75;;;11.00;99.90;;;;;;4967335;28;20105;-74
2021/05/17 07:26:03;;;;;;;3.33;0.63;;;11.20;99.90;;;;;;4963726;28;20146;-76
2021/05/17 07:28:30;;;;;;;7.13;0.60;;;11.10;99.90;;;;;;4962183;28;20068;-77
2021/05/17 07:30:57;;;;;;;3.83;0.45;;;11.10;99.90;;;;;;4959464;28;20572;-78
2021/05/17 07:33:23;;;;;;;3.03;0.60;;;11.20;99.90;;;;;;4936034;29;20107;-76
2021/05/17 07:35:49;;;;;;;5.97;0.60;;;11.30;99.90;;;;;;4959702;28;20079;-79
2021/05/17 07:38:14;;;;;;;2.80;0.50;;;11.50;99.90;;;;;;4972127;28;20083;-76
2021/05/17 07:40:40;;;;;;;2.53;0.60;;;11.70;99.90;;;;;;4968358;28;20094;-76
2021/05/17 07:43:06;;;;;;;1.50;0.40;;;11.80;99.90;;;;;;4952802;28;20735;-76
2021/05/17 07:45:31;;;;;;;2.33;0.50;;;11.90;99.90;;;;;;4970401;28;20145;-76
2021/05/17 07:47:57;;;;;;;4.43;0.70;;;11.90;99.90;;;;;;4965421;28;20154;-78
2021/05/17 07:50:23;;;;;;;2.08;0.45;;;11.90;99.90;;;;;;4969124;28;20071;-77
2021/05/17 07:52:49;;;;;;;5.95;0.77;;;12.00;99.90;;;;;;4958205;28;20102;-76
2021/05/17 07:55:20;;;;;;;1.20;0.40;;;11.90;99.90;;;;;;4954838;28;20237;-78
2021/05/17 07:57:45;;;;;;;3.47;0.93;;;11.90;99.90;;;;;;4961634;28;20084;-75
2021/05/17 08:00:12;;;;;;;1.35;0.50;;;11.70;99.90;;;;;;4952175;28;20071;-75
2021/05/17 08:02:43;;;;;;;7.03;0.75;;;11.60;99.90;;;;;;5061715;28;20437;-75
2021/05/17 08:05:09;;;;;;;1.92;0.32;;;11.60;99.90;;;;;;5042595;28;20090;-77
2021/05/17 08:07:38;;;;;;;3.20;0.55;;;11.60;99.90;;;;;;5056120;28;20566;-79
2021/05/17 08:10:05;;;;;;;2.72;0.40;;;11.60;99.90;;;;;;5029779;28;20082;-77
2021/05/17 08:12:31;;;;;;;1.40;0.25;;;11.50;99.90;;;;;;5057459;28;20097;-82
2021/05/17 08:14:58;;;;;;;2.88;0.50;;;11.50;99.90;;;;;;5046115;28;20097;-78
2021/05/17 08:17:23;;;;;;;1.83;0.77;;;11.50;99.90;;;;;;5054049;28;20685;-76
2021/05/17 08:19:49;;;;;;;2.22;0.45;;;11.60;99.90;;;;;;5045391;28;20073;-77
2021/05/17 08:22:15;;;;;;;2.78;0.68;;;11.70;99.90;;;;;;5063562;28;20127;-77
2021/05/17 08:24:41;;;;;;;3.70;0.45;;;11.60;99.90;;;;;;5034356;28;20073;-75
2021/05/17 08:27:07;;;;;;;4.10;0.68;;;11.60;99.90;;;;;;5041622;28;20070;-75
2021/05/17 08:29:35;;;;;;;2.08;0.43;;;11.60;99.90;;;;;;5047602;28;20419;-74
2021/05/17 08:32:02;;;;;;;3.53;0.75;;;11.70;99.90;;;;;;5046649;28;20138;-75
2021/05/17 08:34:29;;;;;;;1.90;0.68;;;11.70;99.90;;;;;;5047127;28;20078;-75
2021/05/17 08:36:58;;;;;;;3.55;0.43;;;11.70;99.90;;;;;;5043064;28;20081;-76
2021/05/17 08:39:24;;;;;;;3.17;1.77;;;11.70;99.90;;;;;;5043829;28;20101;-75
2021/05/17 08:41:49;;;;;;;3.28;0.45;;;11.70;99.90;;;;;;5050891;28;20852;-75
2021/05/17 08:44:15;;;;;;;2.20;0.50;;;11.70;99.90;;;;;;5042438;28;20085;-76
2021/05/17 08:46:46;;;;;;;1.95;0.55;;;11.70;99.90;;;;;;5040894;28;20160;-74
2021/05/17 08:49:12;;;;;;;1.75;0.60;;;11.70;99.90;;;;;;5041920;28;20078;-76
2021/05/17 08:51:38;;;;;;;1.25;0.30;;;11.80;99.90;;;;;;5043700;28;20589;-75
2021/05/17 08:54:06;;;;;;;4.60;0.40;;;11.80;99.90;;;;;;5057106;28;20131;-78
2021/05/17 08:56:33;;;;;;;4.53;0.63;;;11.80;99.90;;;;;;5055110;28;20082;-76
2021/05/17 08:59:05;;;;;;;2.15;0.65;;;11.80;99.90;;;;;;5054359;28;20140;-76
2021/05/17 09:01:31;;;;;;;3.00;1.27;;;11.80;99.90;;;;;;5058494;28;20094;-75
2021/05/17 09:04:01;;;;;;;1.45;0.50;;;11.80;99.90;;;;;;5042611;28;20446;-75
2021/05/17 09:06:56;;;;;;;2.50;0.90;;;11.80;99.90;;;;;;5043014;28;20104;-75
2021/05/17 09:09:34;;;;;;;2.67;0.70;;;11.90;99.90;;;;;;5042513;28;20445;-76
2021/05/17 09:12:06;;;;;;;1.98;0.45;;;12.10;99.90;;;;;;5048430;28;20155;-75
2021/05/17 09:14:33;;;;;;;2.85;0.82;;;12.40;99.90;;;;;;5028562;28;20550;-76
2021/05/17 09:17:02;;;;;;;1.23;0.40;;;12.60;99.90;;;;;;5028339;28;20082;-75
2021/05/17 09:19:31;;;;;;;1.42;0.50;;;12.60;99.90;;;;;;5049048;28;20146;-76
2021/05/17 09:22:25;;;;;;;4.82;0.70;;;12.60;99.90;;;;;;5035316;28;20651;-76
2021/05/17 09:24:53;;;;;;;1.42;0.50;;;12.60;99.90;;;;;;5021557;28;20097;-75
2021/05/17 09:27:29;;;;;;;0.95;0.22;;;12.80;99.90;;;;;;5029406;28;20070;-75
2021/05/17 09:30:01;;;;;;;3.38;0.60;;;12.80;99.90;;;;;;5027803;28;20117;-76
2021/05/17 09:32:28;;;;;;;1.42;0.30;;;13.00;99.90;;;;;;5034985;28;20102;-75
2021/05/17 09:35:15;;;;;;;0.93;0.40;;;13.20;99.90;;;;;;5042449;28;20081;-75
2021/05/17 09:37:44;;;;;;;1.25;0.30;;;13.60;99.90;;;;;;5043120;28;20077;-76
2021/05/17 09:40:25;;;;;;;3.50;0.35;;;13.70;99.90;;;;;;5031031;28;20074;-76
2021/05/17 09:43:11;;;;;;;2.97;0.38;;;13.70;99.90;;;;;;5037131;28;20077;-75
2021/05/17 09:45:39;;;;;;;0.73;0.20;;;13.40;99.90;;;;;;5024946;28;20538;-75
2021/05/17 09:48:25;;;;;;;2.03;0.50;;;13.30;99.90;;;;;;5033222;28;20081;-75
2021/05/17 09:50:56;;;;;;;0.95;0.20;;;13.70;99.90;;;;;;5034098;28;20584;-75
2021/05/17 09:53:49;;;;;;;1.63;0.40;;;13.90;99.90;;;;;;5025209;28;20136;-75
2021/05/17 09:56:22;;;;;;;2.65;0.57;;;13.90;99.90;;;;;;5027303;28;20465;-75
2021/05/17 09:58:57;;;;;;;1.50;0.30;;;13.90;99.90;;;;;;5041829;28;20082;-75
2021/05/17 10:01:22;;;;;;;1.70;0.43;;;13.60;99.90;;;;;;5037236;28;20093;-75
2021/05/17 10:03:51;;;;;;;2.55;0.30;;;13.40;99.90;;;;;;5027634;28;20100;-73
2021/05/17 10:06:25;;;;;;;1.42;0.70;;;13.40;99.90;;;;;;5020873;28;20070;-74
2021/05/17 10:08:52;;;;;;;2.08;0.25;;;13.30;99.90;;;;;;5031746;28;20066;-74
2021/05/17 10:11:20;;;;;;;0.98;0.40;;;13.40;99.90;;;;;;5025361;28;20132;-73
2021/05/17 10:13:46;;;;;;;2.70;0.50;;;13.60;99.90;;;;;;5030291;28;20076;-73
2021/05/17 10:16:14;;;;;;;0.77;0.30;;;13.50;99.90;;;;;;5027685;28;20455;-73
2021/05/17 10:18:41;;;;;;;0.80;0.30;;;13.50;99.90;;;;;;5026725;28;20077;-73
2021/05/17 10:21:10;;;;;;;1.27;0.38;;;13.50;99.90;;;;;;5043446;28;20097;-73
2021/05/17 10:23:41;;;;;;;2.15;0.30;;;13.30;99.90;;;;;;5027314;28;20173;-72
2021/05/17 10:26:13;;;;;;;0.93;0.30;;;13.50;99.90;;;;;;5027122;28;20605;-73
2021/05/17 10:28:43;;;;;;;0.93;0.22;;;13.70;99.90;;;;;;5032271;28;20086;-75
2021/05/17 10:31:14;;;;;;;1.05;0.30;;;13.80;99.90;;;;;;5026480;28;20093;-80
2021/05/17 10:33:57;;;;;;;2.80;0.60;;;13.80;99.90;;;;;;5042141;28;20078;-75
2021/05/17 10:36:59;;;;;;;0.90;0.20;;;13.70;99.90;;;;;;5022122;28;20115;-77
2021/05/17 10:39:43;;;;;;;0.75;0.20;;;13.60;99.90;;;;;;5011895;28;20096;-76
2021/05/17 10:48:17;;;;;;;1.15;0.38;;;13.90;99.90;;;;;;5030687;28;20171;-82
2021/05/17 10:50:48;;;;;;;0.77;0.13;;;13.60;99.90;;;;;;5031367;28;20078;-76
2021/05/17 10:53:43;;;;;;;22.52;0.95;;;13.40;99.90;;;;;;5028485;28;20131;-73
2021/05/17 10:56:11;;;;;;;1.55;0.32;;;13.40;99.90;;;;;;5043008;28;20167;-75
2021/05/17 11:02:08;;;;;;;1.00;0.43;;;13.60;99.90;;;;;;5032115;28;20111;-74
2021/05/17 11:04:35;;;;;;;1.40;0.40;;;13.70;99.90;;;;;;5021176;28;20079;-76
2021/05/17 11:07:30;;;;;;;0.85;0.30;;;13.80;99.90;;;;;;5043620;28;20078;-75
2021/05/17 11:10:10;;;;;;;0.88;0.30;;;13.60;99.90;;;;;;5027152;28;20074;-75
2021/05/17 11:12:43;;;;;;;1.50;0.38;;;13.90;99.90;;;;;;5024862;28;20125;-76
2021/05/17 11:15:15;;;;;;;1.77;0.17;;;13.90;99.90;;;;;;5041257;28;20129;-77
2021/05/17 11:17:50;;;;;;;1.10;0.20;;;13.90;99.90;;;;;;5028240;28;21939;-77
2021/05/17 11:20:48;;;;;;;2.47;0.40;;;13.70;99.90;;;;;;5025127;28;20151;-76
2021/05/17 11:23:44;;;;;;;5.35;0.65;;;14.10;99.90;;;;;;5038855;28;20205;-77
2021/05/17 11:28:42;;;;;;;2.33;0.40;;;14.20;99.90;;;;;;5028960;28;20501;-75
2021/05/17 11:34:01;;;;;;;1.20;0.40;;;14.90;99.90;;;;;;5025556;28;20108;-77
2021/05/17 11:36:45;;;;;;;0.40;0.17;;;15.10;99.90;;;;;;5027741;28;20105;-75
2021/05/17 11:39:18;;;;;;;1.73;0.30;;;14.90;99.90;;;;;;5041255;28;20173;-74
2021/05/17 11:42:02;;;;;;;1.08;0.32;;;14.70;99.90;;;;;;5026869;28;20137;-74
2021/05/17 11:44:29;;;;;;;3.00;0.30;;;14.70;99.90;;;;;;5019320;28;20557;-74
2021/05/17 11:47:18;;;;;;;1.17;0.30;;;14.70;99.90;;;;;;5026156;28;20074;-74
2021/05/17 11:49:45;;;;;;;2.42;0.40;;;14.50;99.90;;;;;;5007717;28;20094;-75
2021/05/17 11:52:13;;;;;;;2.33;0.30;;;14.20;99.90;;;;;;5026251;28;20101;-74
2021/05/17 11:54:45;;;;;;;2.03;0.50;;;14.30;99.90;;;;;;5017683;28;20077;-74
2021/05/17 11:57:12;;;;;;;0.47;0.10;;;14.50;99.90;;;;;;5026655;28;20074;-74
2021/05/17 11:59:38;;;;;;;1.25;0.10;;;13.80;99.90;;;;;;5027326;28;20199;-75
2021/05/17 12:02:06;;;;;;;0.50;0.08;;;13.20;99.90;;;;;;5035635;28;20185;-74
2021/05/17 12:04:39;;;;;;;1.30;0.20;;;13.00;99.90;;;;;;5040031;28;20074;-74
2021/05/17 12:07:10;;;;;;;0.68;0.20;;;13.00;99.90;;;;;;5019534;28;20066;-75
2021/05/17 12:09:36;;;;;;;0.88;0.22;;;13.00;99.90;;;;;;5022637;28;20079;-74
2021/05/17 12:12:12;;;;;;;0.57;0.17;;;12.90;99.90;;;;;;5015912;28;20090;-74
2021/05/17 12:14:44;;;;;;;0.90;0.20;;;12.80;99.90;;;;;;5027087;28;20082;-74
2021/05/17 12:17:19;;;;;;;0.98;0.30;;;12.70;99.90;;;;;;5022004;28;20229;-75
2021/05/17 12:19:56;;;;;;;1.38;0.22;;;12.60;99.90;;;;;;5030699;28;20105;-74
2021/05/17 12:22:39;;;;;;;0.68;0.10;;;12.60;99.90;;;;;;5033274;28;20143;-74
2021/05/17 12:25:16;;;;;;;1.58;0.40;;;12.70;99.90;;;;;;5027140;28;20066;-76
2021/05/17 12:27:45;;;;;;;0.90;0.17;;;12.70;99.90;;;;;;5025037;28;20077;-76
2021/05/17 12:30:21;;;;;;;0.40;0.20;;;12.70;99.90;;;;;;5022151;28;20103;-75
2021/05/17 12:32:49;;;;;;;0.57;0.20;;;12.70;99.90;;;;;;5023443;28;20450;-75
2021/05/17 12:35:21;;;;;;;1.05;0.30;;;12.70;99.90;;;;;;5031110;28;20585;-78
2021/05/17 12:37:49;;;;;;;0.95;0.30;;;12.70;99.90;;;;;;5029370;28;20086;-74
2021/05/17 12:40:27;;;;;;;1.10;0.30;;;12.80;99.90;;;;;;5034783;28;20078;-75
2021/05/17 12:43:12;;;;;;;1.73;0.45;;;12.80;99.90;;;;;;5040604;28;20135;-76
2021/05/17 12:45:39;;;;;;;0.57;0.30;;;12.70;99.90;;;;;;5025845;28;20139;-74
2021/05/17 12:48:54;;;;;;;1.65;0.30;;;12.80;99.90;;;;;;5036435;28;20085;-74
2021/05/17 12:51:26;;;;;;;1.85;0.30;;;12.60;99.90;;;;;;5029220;28;20108;-77
2021/05/17 12:54:15;;;;;;;1.10;0.30;;;12.60;99.90;;;;;;5031559;28;20126;-74
2021/05/17 12:56:41;;;;;;;1.95;0.20;;;12.70;99.90;;;;;;5028169;28;20086;-74
2021/05/17 12:59:20;;;;;;;1.67;0.28;;;12.80;99.90;;;;;;5025014;28;20083;-73
2021/05/17 13:01:46;;;;;;;0.70;0.30;;;13.00;99.90;;;;;;5026875;28;20094;-73
2021/05/17 13:04:23;;;;;;;0.45;0.25;;;13.00;99.90;;;;;;5029285;28;20453;-76
2021/05/17 13:06:58;;;;;;;0.52;0.20;;;13.10;99.90;;;;;;5028469;28;20619;-74
2021/05/17 13:09:24;;;;;;;2.50;0.25;;;13.40;99.90;;;;;;5037675;28;20073;-75
2021/05/17 13:11:55;;;;;;;0.30;0.10;;;13.60;99.90;;;;;;5029748;28;20204;-75
2021/05/17 13:14:23;;;;;;;2.33;0.55;;;13.70;99.90;;;;;;5031176;28;20156;-74
2021/05/17 13:16:48;;;;;;;0.60;0.28;;;13.60;99.90;;;;;;5034500;28;20449;-74
2021/05/17 13:19:34;;;;;;;0.75;0.30;;;13.70;99.90;;;;;;5036102;28;20078;-74
2021/05/17 13:25:22;;;;;;;1.30;0.50;;;12.70;99.90;;;;;;5038250;28;20164;-72
2021/05/17 13:30:41;;;;;;;0.75;0.30;;;11.60;99.90;;;;;;5049777;28;20132;-74
2021/05/17 13:33:09;;;;;;;2.42;0.30;;;11.40;99.90;;;;;;5048604;28;20144;-73
2021/05/17 13:35:35;;;;;;;0.40;0.28;;;11.50;99.90;;;;;;5023520;28;20082;-76
2021/05/17 13:38:01;;;;;;;0.40;0.25;;;11.60;99.90;;;;;;5036351;28;20081;-75
2021/05/17 13:40:27;;;;;;;0.98;0.20;;;11.90;99.90;;;;;;5037273;28;20074;-74
2021/05/17 13:42:53;;;;;;;0.68;0.10;;;11.90;99.90;;;;;;5032790;28;20147;-74
2021/05/17 13:45:19;;;;;;;1.25;0.60;;;12.00;99.90;;;;;;5043482;28;20066;-78